Aérodrome :
LOGIN :

S'inscrire | Disclaimer

   EN    FR    IT 

 










Légende :    VFR   VFR Marginal   IFR   IFR Intensif   IFR Très Intensif
Visi : 
Plafond : 
>= 8 km
>= 3000ft
5 à 8 km
1000 à 3000 ft
1500m à 5 km
500 à 1000 ft
800 à 1500m
200 à 500 ft
< 800m
< 200 ft
Symboles :   Orages  Brouillard  Fortes neiges  Fortes précipitations  Vent > 20 kt
SIGMETs :   Divers  Orages  Givrage  Turbulence  Onde Orograph.  Cendres Volcan.






- Altitude de l'aérodrome : 33 ft
- Code IATA : PLQ


EYPA - Palanga

DERNIER METAR :
  • 281050Z 21008KT 9999 OVC019 15/10 Q1016

METARs EXPIRÉS :
  • 281020Z 21007KT 180V280 9999 BKN020 15/10 Q1016
  • 280950Z 21010KT 9999 FEW019 BKN021 14/10 Q1016
  • 280920Z 20009KT 170V240 9999 BKN022 14/09 Q1016
  • 280850Z 20010KT 170V240 9999 BKN021 14/09 Q1015
  • 280820Z 20010KT 170V230 9999 BKN020 14/09 Q1015

TAF TAF EYPA
Valide du 28 à 06h jusqu'au 29 à 06h UTC


280504Z 2806/2906 21012KT 9000 BKN020
TEMPO 2806/2808 BKN010
BECMG 2812/2814 SCT030
BECMG 2818/2820 VRB02KT



MET'MAP, la Météo Aéronautique d'un coup d'oeil ! - Copyright ORBIFLY Décembre 2007 - Disclaimer

ORBIFLY MET'MAP TEAM :

Programmation & Développement : Alexandra Zaïnal
Sur une idée originale de : Baudouin d'Aumeries
Assistance à la programmation : Marc-Olivier Méhu
Soutien technique & logistique : Manuel Goepfert

Contact : metmap@orbifly.com




SOURCES & CREDITS :

   NOAA